Station: Coonawarra  

  Atmospheric Gas Attenuation - ITU Rec 676-11   ----------------- dB/100km -----------------
Date Time Temp RH % AH g/m3 Dew Point Wind Direction Speed kph Gust kph Barometer mB Rainfall Since 9am 24GHz 47GHz 76GHz 122GHz 134GHz 241GHz
06/09 12:40 15.2 71 9.22 10 13 20 1022.5 0 20.8 26.8 42.0 110.2 105.6 363.7
06/09 12:30 15.1 71 9.16 9.9 11 17 1022.5 0 20.7 26.8 41.8 109.7 104.9 361.3
06/09 12:20 15.4 71 9.33 10.2 15 20 1022.6 0 21.1 27.0 42.3 111.1 106.8 367.9
06/09 12:10 15.6 71 9.44 10.4 13 20 1022.6 0 21.3 27.1 42.7 112.0 108.0 372.1
06/09 12:00 15.6 68 9.04 9.7 9 17 1022.8 0 20.4 26.4 41.1 107.7 102.7 353.6
06/09 11:50 15.8 72 9.69 10.8 13 17 1022.9 0 21.8 27.4 43.6 114.5 111.1 382.9
06/09 11:40 14.9 75 9.56 10.5 13 19 1023.1 0 21.6 27.5 43.6 114.4 110.6 381.2
06/09 11:30 15.4 70 9.2 10 11 19 1023 0 20.8 26.8 41.8 109.8 105.1 361.9
06/09 11:20 15.6 69 9.18 9.9 9 19 1022.8 0 20.7 26.7 41.6 109.2 104.5 360.0
06/09 11:10 15.6 70 9.31 10.2 9 13 1022.8 0 21.0 26.9 42.2 110.6 106.2 366.1
06/09 11:00 14.2 76 9.28 10 13 17 1022.9 0 21.0 27.3 42.8 112.3 107.8 371.3
06/09 10:50 13.8 79 9.41 10.2 13 17 1023 0 21.3 27.6 43.6 114.3 110.1 379.4
06/09 10:40 13.4 82 9.53 10.4 15 20 1023 0 21.6 27.9 44.3 116.3 112.4 387.2
06/09 10:30 13.8 73 8.7 9 9 13 1023.1 0 19.8 26.4 40.6 106.6 100.5 345.9
06/09 10:20 14 73 8.81 9.2 7 9 1023 0 20.0 26.5 41.0 107.5 101.7 350.1
06/09 10:10 13.1 76 8.67 9 11 15 1023.1 0 19.8 26.6 40.9 107.2 101.0 347.6
06/09 10:00 13.5 74 8.66 9 9 19 1022.9 0 19.7 26.4 40.6 106.5 100.4 345.3
06/09 09:50 13.4 74 8.6 8.9 13 20 1022.9 0 19.6 26.4 40.4 106.0 99.7 342.9
06/09 09:40 13.7 77 9.12 9.7 11 17 1022.7 0 20.7 27.1 42.4 111.2 106.3 366.0
06/09 09:30 13.1 80 9.13 9.7 13 17 1022.8 0 20.7 27.3 42.8 112.2 107.3 369.3
06/09 09:20 13 78 8.85 9.3 13 15 1022.8 0 20.2 26.9 41.7 109.3 103.6 356.4
06/09 09:10 13 80 9.07 9.6 9 13 1022.7 0 20.6 27.3 42.6 111.7 106.6 366.9
06/09 09:00 12.8 82 9.19 9.8 9 11 1022.6 0 20.9 27.5 43.2 113.3 108.5 373.6
06/09 08:50 12.5 86 9.46 10.2 7 9 1022.5 6.2 21.5 28.1 44.5 116.8 112.7 388.1
06/09 08:40 12.2 87 9.39 10.1 6 9 1022.4 6.2 21.4 28.0 44.3 116.4 112.1 386.1
06/09 08:30 11.8 90 9.47 10.2 6 9 1022.4 6.2 21.5 28.3 44.9 117.9 113.8 392.1
06/09 08:20 11.3 91 9.28 9.9 6 7 1022.2 6.2 21.2 28.1 44.4 116.5 111.9 385.2
06/09 08:10 11.2 94 9.53 10.3 7 9 1022.2 6.2 21.7 28.6 45.5 119.5 115.6 398.1
06/09 08:00 10.9 96 9.55 10.3 7 11 1022.1 6.2 21.8 28.7 45.8 120.2 116.3 400.6
06/09 07:50 10.7 97 9.53 10.2 6 9 1022 6.2 21.7 28.8 45.8 120.3 116.3 400.6
06/09 07:40 10.6 97 9.47 10.1 0 0 1021.8 6.2 21.6 28.7 45.6 119.7 115.6 398.0
06/09 07:30 10.3 97 9.29 9.8 0 0 1021.6 6.2 21.2 28.5 45.0 118.0 113.4 390.5
06/09 07:20 10.1 97 9.17 9.6 2 6 1021.5 6.2 21.0 28.3 44.5 117.0 112.0 385.5
06/09 07:10 9.9 97 9.06 9.4 0 0 1021.4 6.2 20.8 28.2 44.2 116.0 110.7 380.9
06/09 07:00 9.7 97 8.94 9.2 0 0 1021.2 6.2 20.5 28.0 43.8 114.9 109.3 375.9
06/09 06:50 9.4 97 8.78 8.9 0 0 1021.1 6.2 20.2 27.8 43.2 113.4 107.4 369.3
06/09 06:40 9.2 97 8.66 8.7 0 0 1021 6.2 19.9 27.7 42.8 112.3 106.0 364.3
06/09 06:30 9 97 8.55 8.6 0 0 1020.9 6.2 19.7 27.6 42.4 111.3 104.7 359.7
06/09 06:20 8.6 96 8.25 8 0 0 1020.8 6.2 19.1 27.2 41.4 108.5 101.0 346.7
06/09 06:10 8.4 96 8.15 7.8 0 0 1020.6 6.2 18.9 27.0 41.0 107.6 99.8 342.6
06/09 06:00 8.2 96 8.04 7.6 0 0 1020.5 6.2 18.6 26.9 40.7 106.6 98.5 338.1
06/09 05:50 7.8 94 7.67 6.9 0 0 1020.4 6.2 17.9 26.4 39.3 102.9 93.8 321.6
06/09 05:40 8.4 95 8.06 7.6 0 0 1020.3 6.2 18.7 26.9 40.6 106.5 98.5 338.1
06/09 05:30 8.8 95 8.27 8 2 6 1020.1 6.2 19.1 27.1 41.3 108.3 100.9 346.6
06/09 05:20 9.4 95 8.59 8.6 7 9 1020.1 6.2 19.8 27.5 42.4 111.1 104.6 359.6
06/09 05:10 9.6 95 8.7 8.8 9 13 1019.9 6.2 20.0 27.6 42.7 112.1 105.9 364.1
06/09 05:00 9.5 94 8.56 8.6 9 13 1019.9 6.2 19.7 27.4 42.2 110.6 104.1 357.6
06/09 04:50 9.6 94 8.61 8.7 9 11 1019.8 6.2 19.8 27.4 42.3 111.1 104.6 359.6
06/09 04:40 9.7 94 8.67 8.8 7 9 1019.8 6.2 19.9 27.5 42.5 111.6 105.3 362.1
06/09 04:30 9.8 94 8.72 8.9 9 9 1019.6 6.2 20.0 27.5 42.7 112.0 105.9 364.0
06/09 04:20 9.8 94 8.72 8.9 6 9 1019.4 6.2 20.0 27.5 42.7 112.0 105.9 364.0
06/09 04:10 9.8 94 8.72 8.9 6 9 1019.4 6.2 20.0 27.5 42.7 112.0 105.9 364.0
06/09 04:00 9.9 94 8.78 9 9 9 1019.3 6.2 20.2 27.6 42.9 112.5 106.6 366.4
06/09 03:50 9.9 95 8.87 9.1 7 9 1019.2 6.2 20.4 27.8 43.2 113.5 107.8 370.8
06/09 03:40 9.9 95 8.87 9.1 4 7 1019.1 6.2 20.4 27.8 43.2 113.5 107.8 370.8
06/09 03:30 9.8 95 8.82 9 2 6 1019.1 6.2 20.3 27.7 43.1 113.1 107.2 368.8
06/09 03:20 9.8 95 8.82 9 6 7 1019 6.2 20.3 27.7 43.1 113.1 107.2 368.8
06/09 03:10 9.8 95 8.82 9 9 11 1018.7 6.2 20.3 27.7 43.1 113.0 107.2 368.7
06/09 03:00 9.8 95 8.82 9 9 13 1018.8 6.2 20.3 27.7 43.1 113.1 107.2 368.7
06/09 02:50 9.8 95 8.82 9 9 13 1018.8 6.2 20.3 27.7 43.1 113.1 107.2 368.7
06/09 02:40 9.7 95 8.76 8.9 9 13 1018.9 6.2 20.1 27.6 42.9 112.5 106.5 366.3
06/09 02:30 9.7 95 8.76 8.9 9 15 1018.8 6.2 20.1 27.6 42.9 112.5 106.5 366.2
06/09 02:20 9.4 95 8.59 8.6 9 11 1018.8 6.2 19.8 27.4 42.3 111.0 104.5 359.3
06/09 02:10 9.3 95 8.54 8.5 9 9 1018.8 6.2 19.7 27.4 42.1 110.6 104.0 357.3
06/09 02:00 9.3 95 8.54 8.5 6 9 1018.8 6.2 19.7 27.4 42.1 110.6 104.0 357.3
06/09 01:50 9.6 95 8.7 8.8 7 9 1018.8 6.2 20.0 27.5 42.7 112.0 105.8 363.8
06/09 01:40 9.6 95 8.7 8.8 9 9 1018.7 6.2 20.0 27.5 42.7 112.0 105.8 363.7
06/09 01:30 9.6 94 8.61 8.7 7 9 1018.7 6.2 19.8 27.4 42.3 110.9 104.5 359.3
06/09 01:20 9.5 94 8.56 8.6 7 7 1018.7 6.2 19.7 27.3 42.1 110.5 104.0 357.3
06/09 01:10 9.4 94 8.5 8.5 7 9 1018.6 6.2 19.6 27.3 41.9 110.0 103.2 354.8
06/09 01:00 9.3 94 8.45 8.4 9 13 1018.5 6.2 19.5 27.2 41.7 109.5 102.7 352.7
06/09 00:50 9.3 93 8.36 8.2 9 11 1018.5 6.2 19.3 27.0 41.4 108.5 101.4 348.3
06/09 00:40 9.4 93 8.41 8.3 7 11 1018.4 6.2 19.4 27.1 41.5 108.9 102.0 350.3
06/09 00:30 9.4 94 8.5 8.5 11 13 1018.2 6.2 19.6 27.2 41.9 109.9 103.2 354.7
06/09 00:20 9.3 93 8.36 8.2 11 13 1018 6.2 19.3 27.0 41.3 108.4 101.4 348.2
06/09 00:10 9.4 92 8.32 8.2 11 13 1018 6.2 19.2 26.9 41.1 107.8 100.7 345.8
06/09 00:00 9.8 92 8.54 8.6 11 13 1017.7 6.2 19.7 27.2 41.8 109.7 103.2 354.6
05/09 23:50 10.2 92 8.76 9 11 13 1017.5 6.2 20.1 27.4 42.5 111.6 105.7 363.5
05/09 23:40 10.5 92 8.92 9.3 11 13 1017.5 6.2 20.4 27.6 43.1 113.0 107.5 369.9
05/09 23:30 10.5 92 8.92 9.3 7 11 1017.5 6.2 20.4 27.6 43.1 113.0 107.5 369.9
05/09 23:20 10.4 93 8.97 9.3 11 15 1017.3 6.2 20.5 27.7 43.3 113.7 108.4 372.8
05/09 23:10 10.1 93 8.8 9 11 15 1017.2 6.2 20.2 27.5 42.7 112.2 106.4 365.8
05/09 23:00 9.8 94 8.72 8.9 9 15 1017 6.2 20.0 27.4 42.6 111.7 105.6 363.3
05/09 22:50 9.2 92 8.22 8 11 13 1016.8 6.2 19.0 26.8 40.7 106.9 99.4 341.5
05/09 22:40 9.5 92 8.38 8.3 11 15 1016.6 6.2 19.3 26.9 41.2 108.2 101.3 347.9
05/09 22:30 9.7 92 8.48 8.5 13 15 1016.4 6.2 19.5 27.0 41.6 109.1 102.4 351.8
05/09 22:20 9.9 92 8.59 8.7 13 15 1016.5 6.2 19.8 27.2 41.9 110.0 103.6 356.3
05/09 22:10 9.7 91 8.39 8.3 13 15 1016.5 6.2 19.3 26.9 41.2 108.1 101.1 347.4
05/09 22:00 9.8 89 8.26 8.1 11 15 1016.3 6.2 19.0 26.6 40.6 106.4 99.2 340.6
05/09 21:50 10.1 88 8.32 8.2 11 13 1016.3 6.2 19.2 26.6 40.7 106.7 99.6 342.2
05/09 21:40 10.3 88 8.43 8.4 11 15 1016.3 6.2 19.4 26.8 41.0 107.7 100.9 346.6
05/09 21:30 10.4 89 8.58 8.7 13 15 1016 6.2 19.7 27.0 41.6 109.2 102.8 353.4
05/09 21:20 10.3 88 8.43 8.4 13 15 1015.9 6.2 19.4 26.8 41.0 107.6 100.8 346.5
05/09 21:10 10.3 88 8.43 8.4 15 19 1015.9 6.2 19.4 26.8 41.0 107.6 100.8 346.5
05/09 21:00 10.3 88 8.43 8.4 15 20 1015.6 6.2 19.4 26.7 41.0 107.6 100.8 346.4
05/09 20:50 10.4 88 8.48 8.5 17 19 1015.6 6.2 19.5 26.8 41.2 108.0 101.4 348.4
05/09 20:40 10.3 88 8.43 8.4 15 17 1015.3 6.2 19.4 26.7 41.0 107.5 100.8 346.4
05/09 20:30 10.6 87 8.49 8.5 13 17 1015 6.2 19.5 26.7 41.1 107.8 101.2 347.8
05/09 20:20 10.9 87 8.66 8.8 13 17 1015.1 6.2 19.9 26.9 41.6 109.3 103.2 354.7
05/09 20:10 11.1 86 8.66 8.8 13 19 1014.9 6.2 19.8 26.9 41.5 109.0 102.9 353.7

Last Refresh: 06-Sep-2026 12:44:48

Bureau of Meteorology